Řízení letového provozu České republiky  
Aktualizace dat:  16.10.2019 00:36:25 UTC English version
   METEO Zobrazení stránky:  16.10.2019 00:37:11 UTC  
vysvětlivky
METAR EDDB 160020Z 12004KT 7000 NSC 11/11 Q1004 BECMG 1200 BCFG=
METAR EDDC 160020Z 17004KT 140V200 CAVOK 12/10 Q1005=
METAR EDDE 160020Z 24014KT 210V270 9999 FEW012 BKN046 13/11 Q1007=
METAR EDDF 160020Z 22010KT 9999 -RA FEW035 SCT046 12/11 Q1011 NOSIG=
METAR EDDM 160020Z 25014KT 9999 -RA NSC 11/09 Q1014 RERA NOSIG=
METAR EDDN 160020Z 23005KT 200V260 9999 -RA SCT010 BKN014 13/12 Q1012=
METAR EDDP 160020Z 24011KT CAVOK 14/13 Q1005 BECMG 24015G25KT=
METAR EDDT 160020Z VRB01KT 9999 R08L/0100V0225D BCFG NSC 12/11 Q1004=
METAR EDQM NIL
METAR EPBY 160030Z 14006KT CAVOK 13/11 Q1006=
METAR EPGD 160030Z VRB02KT 7000 0200W PRFG NSC 11/11 Q1006=
METAR EPKK 160030Z 07003KT 030V100 CAVOK 08/06 Q1010=
METAR EPKT 160030Z 09005KT CAVOK 10/06 Q1009=
METAR EPLL 160030Z 11003KT 080V140 9999 MIFG NSC 12/09 Q1008=
METAR EPPO 160030Z 16006KT CAVOK 12/10 Q1005=
METAR EPRZ 160030Z 12007KT CAVOK 10/08 Q1012=
METAR EPWA 160030Z 14005KT CAVOK 10/09 Q1010 NOSIG=
METAR EPWR 160030Z 19010KT CAVOK 17/12 Q1006=
METAR LHBP 160030Z VRB03KT CAVOK 10/10 Q1014 NOSIG=
METAR LHSM 160015Z AUTO 17008KT 8000 NCD 12/11 Q1013=
METAR LKBC 160030Z AUTO 23004KT 150V250 0400 FG VV002 09/09 Q1010=
METAR LKCV 160000Z 21004KT 8000 NSC 09/09 Q1008 NOSIG RMK BLU BLU=
METAR LKKB 160000Z 22005KT 5000 BR NSC 09/09 Q1007 RMK WHT=
METAR LKKU NIL
METAR LKKV 160000Z 24003KT 210V280 4000 BR OVC004 11/10 Q1009 RMK REG QNH 1006=
METAR LKLN 160030Z AUTO 22009KT 6000 OVC009 13/12 Q1009=
METAR LKMT 160030Z 19017G29KT CAVOK 19/10 Q1008 NOSIG RMK REG QNH 1006=
METAR LKNA 160000Z 12006KT CAVOK 12/12 Q1009 RMK BLU=
METAR LKPD 160002Z 27002KT 8000 NSC 10/09 Q1008 RMK BLU=
METAR LKPJ 160000Z AUTO 15008KT CAVOK ///// Q////=
METAR LKPR 160030Z 20005KT 6000 FEW009 BKN010 10/09 Q1008 BECMG 3000 BR BKN007 RMK REG QNH 1006=
METAR LKTB 160030Z 09006KT CAVOK 14/11 Q1009 NOSIG RMK REG QNH 1006=
METAR LKVO NIL
METAR LOWI 160020Z AUTO 23015G28KT 200V260 9000 RA FEW030 SCT036 BKN046 11/07 Q1013=
METAR LOWL 160020Z AUTO 24004KT 7000 FEW018 SCT020 BKN022 13/12 Q1012=
METAR LOWS 160020Z AUTO 29007KT 230V320 9999 -RA FEW017 OVC046 11/09 Q1014=
METAR LOWW 160020Z 17004KT CAVOK 14/11 Q1009 WS ALL RWY BECMG 29012KT=
METAR LZIB 160030Z 13005KT 080V180 CAVOK 16/12 Q1010=
METAR LZKZ 160030Z VRB02KT 9999 BCFG NSC 08/07 Q1015=
METAR LZMC NIL
METAR LZPP 160030Z AUTO 14015KT 9999 NCD 17/10 Q1011=
METAR LZSL 160030Z 00000KT 0600 R36/0375N FG FEW002 08/06 Q1014=
METAR LZTT 160030Z VRB01KT CAVOK 07/06 Q1014=
METAR LZZI 160030Z 20008KT 150V240 9999 FEW032 18/09 Q1011=